createdAt,value
2023-04-08T00:00:01.780Z,7.50
2023-04-08T00:02:03.990Z,8.40
2023-04-08T00:04:06.342Z,8.00
2023-04-08T00:06:08.559Z,7.97
2023-04-08T00:08:10.607Z,7.80
2023-04-08T00:10:12.628Z,7.20
2023-04-08T00:12:14.617Z,7.40
2023-04-08T00:14:16.624Z,7.67
2023-04-08T00:16:18.703Z,7.50
2023-04-08T00:18:20.877Z,7.17
2023-04-08T00:20:24.276Z,7.27
2023-04-08T00:22:26.386Z,7.43
2023-04-08T00:24:28.567Z,8.00
2023-04-08T00:26:30.913Z,8.10
2023-04-08T00:28:32.888Z,7.87
2023-04-08T00:30:34.995Z,8.00
2023-04-08T00:32:38.342Z,7.00
2023-04-08T00:34:40.347Z,9.50
2023-04-08T00:36:42.425Z,8.03
2023-04-08T00:38:44.547Z,8.13
2023-04-08T00:40:46.654Z,8.17
2023-04-08T00:42:48.618Z,7.83
2023-04-08T00:44:50.917Z,8.27
2023-04-08T00:46:53.004Z,7.93
2023-04-08T00:48:55.666Z,8.53
2023-04-08T00:50:58.551Z,8.33
2023-04-08T00:53:00.963Z,7.83
2023-04-08T00:55:03.310Z,8.50
2023-04-08T00:57:06.453Z,8.60
2023-04-08T00:59:08.537Z,9.03
2023-04-08T01:01:15.857Z,8.40
2023-04-08T01:03:23.015Z,7.60
2023-04-08T01:05:46.718Z,8.37
2023-04-08T01:07:50.040Z,9.10
2023-04-08T01:09:54.956Z,8.23
2023-04-08T01:11:57.876Z,8.20
2023-04-08T01:14:02.574Z,8.83
2023-04-08T01:16:05.383Z,8.80
2023-04-08T01:18:09.031Z,8.37
2023-04-08T01:20:12.122Z,9.80
2023-04-08T01:22:28.458Z,8.30
2023-04-08T01:24:34.173Z,10.90
2023-04-08T01:26:36.300Z,8.07
2023-04-08T01:28:38.736Z,11.50
2023-04-08T01:30:41.874Z,9.93
2023-04-08T01:32:45.553Z,9.87
2023-04-08T01:34:48.090Z,10.53
2023-04-08T01:36:51.378Z,9.63
2023-04-08T01:38:53.535Z,10.60
2023-04-08T01:40:56.039Z,10.80
2023-04-08T01:42:59.216Z,11.17
2023-04-08T01:45:01.672Z,12.00
2023-04-08T01:47:03.971Z,11.07
2023-04-08T01:49:06.895Z,12.20
2023-04-08T01:51:11.703Z,10.00
2023-04-08T01:53:14.031Z,10.77
2023-04-08T01:55:16.649Z,10.27
2023-04-08T01:57:23.993Z,10.97
2023-04-08T01:59:29.963Z,11.30
2023-04-08T02:01:32.968Z,10.90
2023-04-08T02:03:36.345Z,10.70
2023-04-08T02:05:39.758Z,11.13
2023-04-08T02:07:42.180Z,14.03
2023-04-08T02:09:44.817Z,11.50
2023-04-08T02:11:46.803Z,11.30
2023-04-08T02:13:49.205Z,11.10
2023-04-08T02:15:54.050Z,12.47
2023-04-08T02:18:03.815Z,12.77
2023-04-08T02:20:08.395Z,13.40
2023-04-08T02:22:17.756Z,12.27
2023-04-08T02:24:21.180Z,13.03
2023-04-08T02:26:24.360Z,13.50
2023-04-08T02:28:26.746Z,12.27
2023-04-08T02:30:29.237Z,11.73
2023-04-08T02:32:33.234Z,12.97
2023-04-08T02:34:35.439Z,12.70
2023-04-08T02:36:39.017Z,11.30
2023-04-08T02:38:41.737Z,12.83
2023-04-08T02:40:44.061Z,10.97
2023-04-08T02:42:46.245Z,11.60
2023-04-08T02:44:48.319Z,11.20
2023-04-08T02:46:50.375Z,12.00
2023-04-08T02:48:53.868Z,10.97
2023-04-08T02:50:55.956Z,10.07
2023-04-08T02:52:57.905Z,9.73
2023-04-08T02:54:59.981Z,9.83
2023-04-08T02:57:02.017Z,10.07
2023-04-08T02:59:04.161Z,10.37
2023-04-08T03:01:06.690Z,9.60
2023-04-08T03:03:09.016Z,10.77
2023-04-08T03:05:11.749Z,10.17
2023-04-08T03:07:13.758Z,9.13
2023-04-08T03:09:15.672Z,10.70
2023-04-08T03:11:17.720Z,9.63
2023-04-08T03:13:19.712Z,9.73
2023-04-08T03:15:21.800Z,9.30
2023-04-08T03:17:23.921Z,9.40
2023-04-08T03:19:25.924Z,9.97
2023-04-08T03:21:28.084Z,10.97
2023-04-08T03:23:30.359Z,10.73
2023-04-08T03:25:32.551Z,9.50
2023-04-08T03:27:35.853Z,10.20
2023-04-08T03:29:38.083Z,11.50
2023-04-08T03:31:40.722Z,10.27
2023-04-08T03:33:42.855Z,11.33
2023-04-08T03:35:44.905Z,10.83
2023-04-08T03:37:47.146Z,11.83
2023-04-08T03:39:49.167Z,10.67
2023-04-08T03:41:51.262Z,10.20
2023-04-08T03:43:53.241Z,9.00
2023-04-08T03:45:56.264Z,9.07
2023-04-08T03:47:58.416Z,10.00
2023-04-08T03:50:00.638Z,9.30
2023-04-08T03:52:02.831Z,8.70
2023-04-08T03:54:05.601Z,9.53
2023-04-08T03:56:08.072Z,9.87
2023-04-08T03:58:10.178Z,9.87
2023-04-08T04:00:12.911Z,8.97
2023-04-08T04:02:15.066Z,9.93
2023-04-08T04:04:17.350Z,9.53
2023-04-08T04:06:19.414Z,8.40
2023-04-08T04:08:21.475Z,9.50
2023-04-08T04:10:23.610Z,9.67
2023-04-08T04:12:26.486Z,9.40
2023-04-08T04:14:28.463Z,9.40
2023-04-08T04:16:32.725Z,9.37
2023-04-08T04:18:35.043Z,8.97
2023-04-08T04:20:40.603Z,9.10
2023-04-08T04:22:42.893Z,9.07
2023-04-08T04:24:50.634Z,8.60
2023-04-08T04:26:52.744Z,8.30
2023-04-08T04:28:54.858Z,8.23
2023-04-08T04:30:56.950Z,8.73
2023-04-08T04:32:59.135Z,9.03
2023-04-08T04:35:01.344Z,9.03
2023-04-08T04:37:03.274Z,8.70
2023-04-08T04:39:05.634Z,7.93
2023-04-08T04:41:07.612Z,8.63
2023-04-08T04:43:10.109Z,8.40
2023-04-08T04:45:12.672Z,8.30
2023-04-08T04:47:16.112Z,8.73
2023-04-08T04:49:18.338Z,8.80
2023-04-08T04:51:20.687Z,9.60
2023-04-08T04:53:22.780Z,9.37
2023-04-08T04:55:24.952Z,9.97
2023-04-08T04:57:26.921Z,9.40
2023-04-08T04:59:29.025Z,9.53
2023-04-08T05:01:31.100Z,11.07
2023-04-08T05:03:33.221Z,11.40
2023-04-08T05:05:35.350Z,10.70
2023-04-08T05:07:38.177Z,9.73
2023-04-08T05:09:40.275Z,9.90
2023-04-08T05:11:42.453Z,11.70
2023-04-08T05:13:45.086Z,10.37
2023-04-08T05:15:47.229Z,11.43
2023-04-08T05:17:49.348Z,12.27
2023-04-08T05:19:53.287Z,10.90
2023-04-08T05:21:55.468Z,13.10
2023-04-08T05:23:57.697Z,11.60
2023-04-08T05:25:59.769Z,12.07
2023-04-08T05:28:02.028Z,11.07
2023-04-08T05:30:04.541Z,11.70
2023-04-08T05:32:06.702Z,13.50
2023-04-08T05:34:08.802Z,12.23
2023-04-08T05:36:11.555Z,14.07
2023-04-08T05:38:13.571Z,12.70
2023-04-08T05:40:15.772Z,14.13
2023-04-08T05:42:17.876Z,14.13
2023-04-08T05:44:19.848Z,14.10
2023-04-08T05:46:21.914Z,13.03
2023-04-08T05:48:23.946Z,15.13
2023-04-08T05:50:26.128Z,16.60
2023-04-08T05:52:28.212Z,15.30
2023-04-08T05:54:30.366Z,15.10
2023-04-08T05:56:32.430Z,16.47
2023-04-08T05:58:34.458Z,15.50
2023-04-08T06:00:36.521Z,17.70
2023-04-08T06:02:39.014Z,17.60
2023-04-08T06:04:41.300Z,16.17
2023-04-08T06:06:43.800Z,16.93
2023-04-08T06:08:45.829Z,18.50
2023-04-08T06:10:51.621Z,15.50
2023-04-08T06:12:53.691Z,14.00
2023-04-08T06:14:56.274Z,16.03
2023-04-08T06:16:58.291Z,16.77
2023-04-08T06:19:00.723Z,16.57
2023-04-08T06:21:02.956Z,17.40
2023-04-08T06:23:05.017Z,16.57
2023-04-08T06:25:07.464Z,17.60
2023-04-08T06:27:09.497Z,18.30
2023-04-08T06:29:11.669Z,18.20
2023-04-08T06:31:13.681Z,18.57
2023-04-08T06:33:16.018Z,19.40
2023-04-08T06:35:18.263Z,17.23
2023-04-08T06:37:20.338Z,16.47
2023-04-08T06:39:22.432Z,18.60
2023-04-08T06:41:24.802Z,16.43
2023-04-08T06:43:27.632Z,18.63
2023-04-08T06:45:29.714Z,18.50
2023-04-08T06:47:31.830Z,18.90
2023-04-08T06:49:33.848Z,17.13
2023-04-08T06:51:36.487Z,20.27
2023-04-08T06:53:38.846Z,19.13
2023-04-08T06:55:41.817Z,17.77
2023-04-08T06:57:43.869Z,20.57
2023-04-08T06:59:46.815Z,18.50
2023-04-08T07:01:48.936Z,22.00
2023-04-08T07:03:51.207Z,20.67
2023-04-08T07:05:53.679Z,19.13
2023-04-08T07:07:55.734Z,21.30
2023-04-08T07:09:57.814Z,23.43
2023-04-08T07:11:59.974Z,20.13
2023-04-08T07:14:01.996Z,18.63
2023-04-08T07:16:04.479Z,20.00
2023-04-08T07:18:06.570Z,19.90
2023-04-08T07:20:09.046Z,20.83
2023-04-08T07:22:11.462Z,18.03
2023-04-08T07:24:13.642Z,18.80
2023-04-08T07:26:15.790Z,21.23
2023-04-08T07:28:17.876Z,20.87
2023-04-08T07:30:20.239Z,20.23
2023-04-08T07:32:22.404Z,18.83
2023-04-08T07:34:24.483Z,18.33
2023-04-08T07:36:29.313Z,19.70
2023-04-08T07:38:33.951Z,18.87
2023-04-08T07:40:38.985Z,21.10
2023-04-08T07:42:41.606Z,19.27
2023-04-08T07:44:43.674Z,19.97
2023-04-08T07:46:46.406Z,19.37
2023-04-08T07:48:48.587Z,20.73
2023-04-08T07:51:08.531Z,20.93
2023-04-08T07:53:12.620Z,21.73
2023-04-08T07:55:14.862Z,21.83
2023-04-08T07:57:16.988Z,24.80
2023-04-08T07:59:19.301Z,25.60
2023-04-08T08:01:22.733Z,25.63
2023-04-08T08:03:25.540Z,23.37
2023-04-08T08:05:27.831Z,22.80
2023-04-08T08:07:29.936Z,21.37
2023-04-08T08:09:32.271Z,19.90
2023-04-08T08:11:34.492Z,22.70
2023-04-08T08:13:36.707Z,21.57
2023-04-08T08:15:38.835Z,19.10
2023-04-08T08:17:41.018Z,19.00
2023-04-08T08:19:42.997Z,22.23
2023-04-08T08:21:45.054Z,18.80
2023-04-08T08:23:47.283Z,19.87
2023-04-08T08:25:49.294Z,20.70
2023-04-08T08:27:51.388Z,18.87
2023-04-08T08:29:53.425Z,20.53
2023-04-08T08:31:55.402Z,20.60
2023-04-08T08:33:57.415Z,19.23
2023-04-08T08:36:00.210Z,20.20
2023-04-08T08:38:02.678Z,18.37
2023-04-08T08:40:05.187Z,20.50
2023-04-08T08:42:07.175Z,20.03
2023-04-08T08:44:10.125Z,19.20
2023-04-08T08:46:12.781Z,20.43
2023-04-08T08:48:14.785Z,20.40
2023-04-08T08:50:16.839Z,19.07
2023-04-08T08:52:18.881Z,20.30
2023-04-08T08:54:20.950Z,21.67
2023-04-08T08:56:23.023Z,19.37
2023-04-08T08:58:28.627Z,19.40
2023-04-08T09:00:37.649Z,20.63
2023-04-08T09:02:41.401Z,18.87
2023-04-08T09:04:56.501Z,22.10
2023-04-08T09:07:11.193Z,21.80
2023-04-08T09:09:13.912Z,17.80
2023-04-08T09:11:18.011Z,19.50
2023-04-08T09:13:20.098Z,18.93
2023-04-08T09:15:22.356Z,19.57
2023-04-08T09:17:38.746Z,17.90
2023-04-08T09:20:12.143Z,18.00
2023-04-08T09:22:14.187Z,16.70
2023-04-08T09:24:29.961Z,16.67
2023-04-08T09:26:32.281Z,16.33
2023-04-08T09:28:34.468Z,18.03
2023-04-08T09:30:36.736Z,16.50
2023-04-08T09:32:52.402Z,17.70
2023-04-08T09:34:54.526Z,16.07
2023-04-08T09:36:56.713Z,16.57
2023-04-08T09:38:59.056Z,17.40
2023-04-08T09:41:05.394Z,17.00
2023-04-08T09:43:09.696Z,16.30
2023-04-08T09:45:13.628Z,16.40
2023-04-08T09:47:26.436Z,17.77
2023-04-08T09:49:39.053Z,16.60
2023-04-08T09:51:46.559Z,16.40
2023-04-08T09:53:53.537Z,16.27
2023-04-08T09:55:57.423Z,17.47
2023-04-08T09:58:02.180Z,16.27
2023-04-08T10:00:09.014Z,17.80
2023-04-08T10:02:25.966Z,16.13
2023-04-08T10:04:29.432Z,17.67
2023-04-08T10:06:32.830Z,19.63
2023-04-08T10:08:35.445Z,18.33
2023-04-08T10:10:40.072Z,17.07
2023-04-08T10:12:42.544Z,15.73
2023-04-08T10:15:26.357Z,15.83
2023-04-08T10:17:28.809Z,17.30
2023-04-08T10:19:39.646Z,18.27
2023-04-08T10:21:59.746Z,16.73
2023-04-08T10:24:06.441Z,17.17
2023-04-08T10:26:35.931Z,17.43
2023-04-08T10:28:38.136Z,16.17
2023-04-08T10:30:49.922Z,17.07
2023-04-08T10:32:52.468Z,16.63
2023-04-08T10:34:54.818Z,17.00
2023-04-08T10:36:59.079Z,16.40
2023-04-08T10:39:01.344Z,15.90
2023-04-08T10:41:04.215Z,18.00
2023-04-08T10:43:06.463Z,18.27
2023-04-08T10:45:08.937Z,18.03
2023-04-08T10:47:11.403Z,17.37
2023-04-08T10:49:14.587Z,16.63
2023-04-08T10:51:16.852Z,17.97
2023-04-08T10:53:19.187Z,18.43
2023-04-08T10:55:25.335Z,15.13
2023-04-08T10:57:27.605Z,17.33
2023-04-08T10:59:32.226Z,16.40
2023-04-08T11:01:41.352Z,17.03
2023-04-08T11:03:43.950Z,16.73
2023-04-08T11:05:47.100Z,15.97
2023-04-08T11:07:49.618Z,16.70
2023-04-08T11:09:52.115Z,14.67
2023-04-08T11:11:54.476Z,14.83
2023-04-08T11:13:57.416Z,15.30
2023-04-08T11:16:00.531Z,14.07
2023-04-08T11:18:04.435Z,15.20
2023-04-08T11:20:08.809Z,13.90
2023-04-08T11:22:12.932Z,14.63
2023-04-08T11:24:16.696Z,14.97
2023-04-08T11:26:20.024Z,14.63
2023-04-08T11:28:22.485Z,15.30
2023-04-08T11:30:24.770Z,15.80
2023-04-08T11:32:27.151Z,16.60
2023-04-08T11:34:29.437Z,15.20
2023-04-08T11:36:31.728Z,14.50
2023-04-08T11:38:33.888Z,13.70
2023-04-08T11:40:36.300Z,14.83
2023-04-08T11:42:39.226Z,12.77
2023-04-08T11:44:41.470Z,14.90
2023-04-08T11:46:55.356Z,15.53
2023-04-08T11:49:08.827Z,17.00
2023-04-08T11:51:12.523Z,14.90
2023-04-08T11:53:22.468Z,14.40
2023-04-08T11:55:32.188Z,13.83
2023-04-08T11:57:34.474Z,14.77
2023-04-08T11:59:36.948Z,15.03
2023-04-08T12:01:39.108Z,13.60
2023-04-08T12:04:03.183Z,13.83
2023-04-08T12:06:08.839Z,13.20
2023-04-08T12:08:11.075Z,14.07
2023-04-08T12:10:13.671Z,14.43
2023-04-08T12:12:16.124Z,13.80
2023-04-08T12:14:18.340Z,14.80
2023-04-08T12:16:20.912Z,14.40
2023-04-08T12:18:23.456Z,14.33
2023-04-08T12:20:25.799Z,13.40
2023-04-08T12:22:28.346Z,16.53
2023-04-08T12:24:30.784Z,13.33
2023-04-08T12:26:32.946Z,13.73
2023-04-08T12:28:36.199Z,14.93
2023-04-08T12:30:38.394Z,14.20
2023-04-08T12:32:41.412Z,13.70
2023-04-08T12:34:48.649Z,13.50
2023-04-08T12:36:55.646Z,13.30
2023-04-08T12:38:57.888Z,14.30
2023-04-08T12:41:00.050Z,13.90
2023-04-08T12:43:02.330Z,14.90
2023-04-08T12:45:04.846Z,11.83
2023-04-08T12:47:07.149Z,13.20
2023-04-08T12:49:09.718Z,13.90
2023-04-08T12:51:12.041Z,13.27
2023-04-08T12:53:14.237Z,12.97
2023-04-08T12:55:16.467Z,13.73
2023-04-08T12:57:18.729Z,12.70
2023-04-08T12:59:20.891Z,12.80
2023-04-08T13:01:23.314Z,14.47
2023-04-08T13:03:25.958Z,15.20
2023-04-08T13:05:42.166Z,14.47
2023-04-08T13:07:46.420Z,14.60
2023-04-08T13:09:48.723Z,14.27
2023-04-08T13:11:50.910Z,14.20
2023-04-08T13:13:53.172Z,13.73
2023-04-08T13:15:56.635Z,15.57
2023-04-08T13:17:59.738Z,12.73
2023-04-08T13:20:02.085Z,13.40
2023-04-08T13:22:04.309Z,12.90
2023-04-08T13:24:06.746Z,13.20
2023-04-08T13:26:09.104Z,13.23
2023-04-08T13:28:11.589Z,14.23
2023-04-08T13:30:14.160Z,13.40
2023-04-08T13:32:16.478Z,12.90
2023-04-08T13:34:18.678Z,12.37
2023-04-08T13:36:20.836Z,13.03
2023-04-08T13:38:22.953Z,13.53
2023-04-08T13:40:25.482Z,14.03
2023-04-08T13:42:27.715Z,12.90
2023-04-08T13:44:29.995Z,11.77
2023-04-08T13:46:32.207Z,11.63
2023-04-08T13:48:34.358Z,13.03
2023-04-08T13:50:36.694Z,13.10
2023-04-08T13:52:38.853Z,13.67
2023-04-08T13:54:40.969Z,12.13
2023-04-08T13:56:43.152Z,12.73
2023-04-08T13:58:49.784Z,12.57
2023-04-08T14:00:57.457Z,12.53
2023-04-08T14:02:59.789Z,12.40
2023-04-08T14:05:02.019Z,13.10
2023-04-08T14:07:04.210Z,11.87
2023-04-08T14:09:06.939Z,11.63
2023-04-08T14:11:09.105Z,12.80
2023-04-08T14:13:11.261Z,13.30
2023-04-08T14:15:13.396Z,12.40
2023-04-08T14:17:15.679Z,12.17
2023-04-08T14:19:18.308Z,12.23
2023-04-08T14:21:20.471Z,12.23
2023-04-08T14:23:22.677Z,11.73
2023-04-08T14:25:25.220Z,13.33
2023-04-08T14:27:27.970Z,10.50
2023-04-08T14:29:30.193Z,10.87
2023-04-08T14:31:33.561Z,13.27
2023-04-08T14:33:36.144Z,12.03
2023-04-08T14:35:38.354Z,11.03
2023-04-08T14:37:40.625Z,11.97
2023-04-08T14:39:42.907Z,12.40
2023-04-08T14:41:46.724Z,12.63
2023-04-08T14:43:49.281Z,10.20
2023-04-08T14:45:52.148Z,11.50
2023-04-08T14:47:54.396Z,10.83
2023-04-08T14:49:56.539Z,12.40
2023-04-08T14:51:58.732Z,10.70
2023-04-08T14:54:02.104Z,10.50
2023-04-08T14:56:05.185Z,10.27
2023-04-08T14:58:10.328Z,11.07
2023-04-08T15:00:13.178Z,11.00
2023-04-08T15:02:15.453Z,10.90
2023-04-08T15:04:17.807Z,10.90
2023-04-08T15:06:21.759Z,12.43
2023-04-08T15:08:24.116Z,11.60
2023-04-08T15:10:28.041Z,12.10
2023-04-08T15:12:30.545Z,12.10
2023-04-08T15:14:32.803Z,11.13
2023-04-08T15:16:35.205Z,12.97
2023-04-08T15:18:37.533Z,12.73
2023-04-08T15:20:39.809Z,12.40
2023-04-08T15:22:42.197Z,13.07
2023-04-08T15:24:45.302Z,14.07
2023-04-08T15:26:49.085Z,12.23
2023-04-08T15:28:52.836Z,13.33
2023-04-08T15:30:55.283Z,12.10
2023-04-08T15:32:57.635Z,12.87
2023-04-08T15:35:00.645Z,12.60
2023-04-08T15:37:02.929Z,13.17
2023-04-08T15:39:05.162Z,12.37
2023-04-08T15:41:07.326Z,12.70
2023-04-08T15:43:10.750Z,12.60
2023-04-08T15:45:12.931Z,13.13
2023-04-08T15:47:15.131Z,11.63
2023-04-08T15:49:17.332Z,10.30
2023-04-08T15:51:20.369Z,11.90
2023-04-08T15:53:22.956Z,11.53
2023-04-08T15:55:25.267Z,13.83
2023-04-08T15:57:27.954Z,13.17
2023-04-08T15:59:33.366Z,13.97
2023-04-08T16:01:35.787Z,15.40
2023-04-08T16:03:38.892Z,14.93
2023-04-08T16:05:41.980Z,12.23
2023-04-08T16:07:44.174Z,10.80
2023-04-08T16:09:47.153Z,11.37
2023-04-08T16:11:49.404Z,10.63
2023-04-08T16:13:52.319Z,11.93
2023-04-08T16:15:54.583Z,11.60
2023-04-08T16:17:56.789Z,11.93
2023-04-08T16:19:59.057Z,11.33
2023-04-08T16:22:01.652Z,11.40
2023-04-08T16:24:05.776Z,32.07
2023-04-08T16:26:08.735Z,13.23
2023-04-08T16:28:11.218Z,25.53
2023-04-08T16:30:14.163Z,14.50
2023-04-08T16:32:16.528Z,40.17
2023-04-08T16:34:19.181Z,12.83
2023-04-08T16:36:21.489Z,12.60
2023-04-08T16:38:24.593Z,35.50
2023-04-08T16:40:27.326Z,12.80
2023-04-08T16:42:29.494Z,12.70
2023-04-08T16:44:31.693Z,14.30
2023-04-08T16:46:33.951Z,15.40
2023-04-08T16:48:36.298Z,15.87
2023-04-08T16:50:39.651Z,19.83
2023-04-08T16:52:49.224Z,17.23
2023-04-08T16:54:52.318Z,17.63
2023-04-08T16:56:54.481Z,15.90
2023-04-08T16:58:57.073Z,19.30
2023-04-08T17:00:59.324Z,15.83
2023-04-08T17:03:02.437Z,18.50
2023-04-08T17:05:05.049Z,17.90
2023-04-08T17:07:08.325Z,17.90
2023-04-08T17:09:11.020Z,17.43
2023-04-08T17:11:14.746Z,19.90
2023-04-08T17:13:17.250Z,22.57
2023-04-08T17:15:19.601Z,18.57
2023-04-08T17:17:21.813Z,17.63
2023-04-08T17:19:24.049Z,19.47
2023-04-08T17:21:26.924Z,20.97
2023-04-08T17:23:29.067Z,19.70
2023-04-08T17:25:31.468Z,20.10
2023-04-08T17:27:33.714Z,24.10
2023-04-08T17:29:35.885Z,26.40
2023-04-08T17:31:39.724Z,25.50
2023-04-08T17:33:42.040Z,25.60
2023-04-08T17:35:44.349Z,21.37
2023-04-08T17:37:46.555Z,22.00
2023-04-08T17:39:48.795Z,24.33
2023-04-08T17:41:51.031Z,22.37
2023-04-08T17:43:53.270Z,20.60
2023-04-08T17:45:59.802Z,21.57
2023-04-08T17:48:05.483Z,21.43
2023-04-08T17:50:11.599Z,21.80
2023-04-08T17:52:14.477Z,22.90
2023-04-08T17:54:17.320Z,23.30
2023-04-08T17:56:19.459Z,26.97
2023-04-08T17:58:22.715Z,24.63
2023-04-08T18:00:26.337Z,18.27
2023-04-08T18:02:29.170Z,20.13
2023-04-08T18:04:31.564Z,19.23
2023-04-08T18:06:36.562Z,17.63
2023-04-08T18:08:38.648Z,17.63
2023-04-08T18:10:43.332Z,15.80
2023-04-08T18:12:45.904Z,18.70
2023-04-08T18:14:48.113Z,20.00
2023-04-08T18:16:50.364Z,17.93
2023-04-08T18:18:52.627Z,17.83
2023-04-08T18:20:54.801Z,20.17
2023-04-08T18:22:57.144Z,20.07
2023-04-08T18:24:59.286Z,16.87
2023-04-08T18:27:04.791Z,16.20
2023-04-08T18:29:07.961Z,17.83
2023-04-08T18:31:10.210Z,20.00
2023-04-08T18:33:21.780Z,20.50
2023-04-08T18:35:25.398Z,18.73
2023-04-08T18:37:31.172Z,18.87
2023-04-08T18:39:34.063Z,17.97
2023-04-08T18:41:37.360Z,18.20
2023-04-08T18:43:39.505Z,16.67
2023-04-08T18:45:41.730Z,18.70
2023-04-08T18:47:43.876Z,23.93
2023-04-08T18:49:46.465Z,20.63
2023-04-08T18:51:59.363Z,19.50
2023-04-08T18:54:03.866Z,20.43
2023-04-08T18:56:06.280Z,18.63
2023-04-08T18:58:08.431Z,20.27
2023-04-08T19:00:10.756Z,18.70
2023-04-08T19:02:12.948Z,17.17
2023-04-08T19:04:15.262Z,19.80
2023-04-08T19:06:17.540Z,19.00
2023-04-08T19:08:19.693Z,17.73
2023-04-08T19:10:22.038Z,18.00
2023-04-08T19:12:27.016Z,19.23
2023-04-08T19:14:29.261Z,20.70
2023-04-08T19:16:31.443Z,21.23
2023-04-08T19:18:33.650Z,21.27
2023-04-08T19:20:35.819Z,20.50
2023-04-08T19:22:38.720Z,24.40
2023-04-08T19:24:41.003Z,24.10
2023-04-08T19:26:43.340Z,23.07
2023-04-08T19:28:46.220Z,21.80
2023-04-08T19:30:50.040Z,26.03
2023-04-08T19:32:53.851Z,25.53
2023-04-08T19:34:56.049Z,24.97
2023-04-08T19:36:58.181Z,28.27
2023-04-08T19:39:01.553Z,32.00
2023-04-08T19:41:03.851Z,33.30
2023-04-08T19:43:06.379Z,30.07
2023-04-08T19:45:10.961Z,31.90
2023-04-08T19:47:13.440Z,29.60
2023-04-08T19:49:15.603Z,33.63
2023-04-08T19:51:20.331Z,40.30
2023-04-08T19:53:22.530Z,42.73
2023-04-08T19:55:24.669Z,43.10
2023-04-08T19:57:26.927Z,38.30
2023-04-08T19:59:29.543Z,35.73
2023-04-08T20:01:35.928Z,36.10
2023-04-08T20:03:38.226Z,51.00
2023-04-08T20:05:40.649Z,54.27
2023-04-08T20:07:43.347Z,42.53
2023-04-08T20:09:45.555Z,29.40
2023-04-08T20:11:47.765Z,28.97
2023-04-08T20:13:51.446Z,23.47
2023-04-08T20:15:53.703Z,21.20
2023-04-08T20:17:56.568Z,20.73
2023-04-08T20:19:58.840Z,21.90
2023-04-08T20:22:01.669Z,22.83
2023-04-08T20:24:04.003Z,24.80
2023-04-08T20:26:06.456Z,30.00
2023-04-08T20:28:09.048Z,59.93
2023-04-08T20:30:12.180Z,45.40
2023-04-08T20:32:14.423Z,63.67
2023-04-08T20:34:16.649Z,44.00
2023-04-08T20:36:19.013Z,32.60
2023-04-08T20:38:21.761Z,27.30
2023-04-08T20:40:23.973Z,26.67
2023-04-08T20:42:26.648Z,24.30
2023-04-08T20:44:28.854Z,24.23
2023-04-08T20:46:31.088Z,21.17
2023-04-08T20:48:33.460Z,23.77
2023-04-08T20:50:35.708Z,21.00
2023-04-08T20:52:38.754Z,23.30
2023-04-08T20:54:40.885Z,22.70
2023-04-08T20:56:43.167Z,23.70
2023-04-08T20:58:45.487Z,22.07
2023-04-08T21:00:47.860Z,26.13
2023-04-08T21:02:51.040Z,64.37
2023-04-08T21:04:53.362Z,61.40
2023-04-08T21:06:55.658Z,55.50
2023-04-08T21:08:57.832Z,44.63
2023-04-08T21:10:59.953Z,41.60
2023-04-08T21:13:02.134Z,30.13
2023-04-08T21:15:04.480Z,25.10
2023-04-08T21:17:08.322Z,29.60
2023-04-08T21:19:10.624Z,27.40
2023-04-08T21:21:12.863Z,28.90
2023-04-08T21:23:15.391Z,28.70
2023-04-08T21:25:18.184Z,53.53
2023-04-08T21:27:20.384Z,60.70
2023-04-08T21:29:22.517Z,61.67
2023-04-08T21:31:24.758Z,59.37
2023-04-08T21:33:26.826Z,34.23
2023-04-08T21:35:29.012Z,31.37
2023-04-08T21:37:31.205Z,30.53
2023-04-08T21:39:33.321Z,28.00
2023-04-08T21:41:35.556Z,27.13
2023-04-08T21:43:37.803Z,27.83
2023-04-08T21:45:40.020Z,27.50
2023-04-08T21:47:42.230Z,26.53
2023-04-08T21:49:44.632Z,26.60
2023-04-08T21:51:46.870Z,27.90
2023-04-08T21:53:50.848Z,26.57
2023-04-08T21:55:53.413Z,28.77
2023-04-08T21:57:55.608Z,28.40
2023-04-08T21:59:57.911Z,30.43
2023-04-08T22:02:00.458Z,28.67
2023-04-08T22:04:02.722Z,32.33
2023-04-08T22:06:08.216Z,30.30
2023-04-08T22:08:11.641Z,29.10
2023-04-08T22:10:13.844Z,29.20
2023-04-08T22:12:16.224Z,32.37
2023-04-08T22:14:18.441Z,29.80
2023-04-08T22:16:20.733Z,29.90
2023-04-08T22:18:22.877Z,27.53
2023-04-08T22:20:25.054Z,35.70
2023-04-08T22:22:27.228Z,50.60
2023-04-08T22:24:29.496Z,68.73
2023-04-08T22:26:31.673Z,59.40
2023-04-08T22:28:34.457Z,49.40
2023-04-08T22:30:36.802Z,53.40
2023-04-08T22:32:39.128Z,78.43
2023-04-08T22:34:41.435Z,97.10
2023-04-08T22:36:43.544Z,79.90
2023-04-08T22:38:46.443Z,60.60
2023-04-08T22:40:48.440Z,56.00
2023-04-08T22:42:50.588Z,48.50
2023-04-08T22:44:52.558Z,55.83
2023-04-08T22:46:54.516Z,86.67
2023-04-08T22:48:56.551Z,65.83
2023-04-08T22:50:58.662Z,54.33
2023-04-08T22:53:00.837Z,46.40
2023-04-08T22:55:02.926Z,54.23
2023-04-08T22:57:05.015Z,49.20
2023-04-08T22:59:06.958Z,52.70
2023-04-08T23:01:13.770Z,60.20
2023-04-08T23:03:16.221Z,57.97
2023-04-08T23:05:18.620Z,50.70
2023-04-08T23:07:21.039Z,49.53
2023-04-08T23:09:24.634Z,52.93
2023-04-08T23:11:27.290Z,49.00
2023-04-08T23:13:29.833Z,49.20
2023-04-08T23:15:31.986Z,52.27
2023-04-08T23:17:34.073Z,55.37
2023-04-08T23:19:36.119Z,53.43
2023-04-08T23:21:38.218Z,75.83
2023-04-08T23:23:40.423Z,71.87
2023-04-08T23:25:42.408Z,81.73
2023-04-08T23:27:45.734Z,79.70
2023-04-08T23:29:47.776Z,82.70
2023-04-08T23:31:49.823Z,85.63
2023-04-08T23:33:51.820Z,94.33
2023-04-08T23:35:53.875Z,96.07
2023-04-08T23:37:56.160Z,96.27
2023-04-08T23:39:58.287Z,87.67
2023-04-08T23:42:01.724Z,69.73
2023-04-08T23:44:03.766Z,60.23
2023-04-08T23:46:05.934Z,60.93
2023-04-08T23:48:10.031Z,59.80
2023-04-08T23:50:12.418Z,49.10
2023-04-08T23:52:14.455Z,48.33
2023-04-08T23:54:16.632Z,38.13
2023-04-08T23:56:18.664Z,37.50
2023-04-08T23:58:20.718Z,39.83
